createdAt,value
2022-10-14T09:14:45.250Z,45.08
2022-10-14T09:17:35.402Z,43.92
2022-10-14T09:20:08.870Z,45.35
2022-10-14T09:22:36.999Z,44.00
2022-10-14T09:25:12.581Z,45.40
2022-10-14T09:27:40.563Z,45.58
2022-10-14T09:30:15.048Z,42.53
2022-10-14T09:32:53.068Z,43.85
2022-10-14T09:35:34.376Z,42.40
2022-10-14T09:38:02.654Z,42.85
2022-10-14T09:40:37.847Z,44.30
2022-10-14T09:43:08.495Z,41.72
2022-10-14T09:46:01.178Z,42.10
2022-10-14T09:48:32.469Z,39.78
2022-10-14T09:51:03.399Z,42.95
2022-10-14T09:53:34.682Z,45.55
2022-10-14T09:56:05.089Z,41.03
2022-10-14T09:58:38.710Z,43.60
2022-10-14T10:01:13.065Z,46.60
2022-10-14T10:04:38.935Z,43.13
2022-10-14T10:07:27.930Z,47.25
2022-10-14T10:10:00.953Z,43.88
2022-10-14T10:12:35.858Z,43.78
2022-10-14T10:15:06.809Z,42.08
2022-10-14T10:17:40.932Z,47.72
2022-10-14T10:20:33.995Z,46.30
2022-10-14T10:23:35.077Z,43.25
2022-10-14T10:26:33.102Z,43.65
2022-10-14T10:29:03.862Z,43.78
2022-10-14T10:31:52.581Z,45.28
2022-10-14T10:34:42.438Z,44.90
2022-10-14T10:37:38.102Z,42.90
2022-10-14T10:40:21.966Z,43.17
2022-10-14T10:43:07.345Z,45.00
2022-10-14T10:45:50.336Z,44.85
2022-10-14T10:48:24.459Z,44.10
2022-10-14T10:50:57.871Z,44.08
2022-10-14T10:53:55.602Z,50.15
2022-10-14T10:56:33.762Z,41.75
2022-10-14T10:59:27.572Z,41.60
2022-10-14T11:02:14.060Z,44.90
2022-10-14T11:05:12.792Z,42.13
2022-10-14T11:08:19.121Z,51.08
2022-10-14T11:11:30.054Z,42.60
2022-10-14T11:14:16.292Z,42.92
2022-10-14T11:16:57.686Z,43.42
2022-10-14T11:19:38.459Z,42.25
2022-10-14T11:22:19.946Z,42.42
2022-10-14T11:24:58.979Z,40.00
2022-10-14T11:27:44.023Z,40.22
2022-10-14T11:30:19.646Z,40.35
2022-10-14T11:32:52.960Z,40.22
2022-10-14T11:35:20.783Z,40.03
2022-10-14T11:38:09.533Z,43.35
2022-10-14T11:40:55.664Z,41.15
2022-10-14T11:43:48.265Z,41.90
2022-10-14T11:46:22.281Z,44.28
2022-10-14T11:49:00.112Z,44.30
2022-10-14T11:51:39.714Z,41.85
2022-10-14T11:54:15.132Z,40.38
2022-10-14T11:57:00.891Z,42.50
2022-10-14T11:59:41.630Z,44.40
2022-10-14T12:02:33.276Z,50.22
2022-10-14T12:05:22.914Z,40.63
2022-10-14T12:08:01.021Z,43.50
2022-10-14T12:10:44.804Z,42.25
2022-10-14T12:13:22.570Z,42.10
2022-10-14T12:15:53.058Z,44.70
2022-10-14T12:18:21.551Z,42.10
2022-10-14T12:21:01.432Z,41.53
2022-10-14T12:24:04.621Z,42.50
2022-10-14T12:26:54.097Z,44.88
2022-10-14T12:29:25.141Z,44.00
2022-10-14T12:34:41.898Z,41.17
2022-10-14T12:37:31.397Z,44.53
2022-10-14T12:40:07.049Z,40.60
2022-10-14T12:42:44.366Z,43.53
2022-10-14T12:45:20.104Z,42.30
2022-10-14T12:47:48.123Z,48.10
2022-10-14T12:50:19.342Z,49.58
2022-10-14T12:52:57.230Z,42.28
2022-10-14T12:55:28.776Z,40.75
2022-10-14T12:58:05.229Z,44.65
2022-10-14T13:00:39.341Z,49.90
2022-10-14T13:03:20.831Z,41.75
2022-10-14T13:05:48.782Z,43.35
2022-10-14T13:08:25.810Z,43.45
2022-10-14T13:11:00.083Z,42.22
2022-10-14T13:13:44.964Z,44.53
2022-10-14T13:16:34.588Z,49.97
2022-10-14T13:19:27.958Z,48.35
2022-10-14T13:22:03.889Z,45.20
2022-10-14T13:24:39.131Z,43.08
2022-10-14T13:27:20.956Z,45.63
2022-10-14T13:30:10.246Z,45.10
2022-10-14T13:33:16.460Z,43.92
2022-10-14T13:36:04.063Z,43.05
2022-10-14T13:38:34.125Z,45.13
2022-10-14T13:41:03.743Z,42.33
2022-10-14T13:43:39.372Z,45.85
2022-10-14T13:46:22.085Z,44.28
2022-10-14T13:48:57.718Z,45.22
2022-10-14T13:51:43.258Z,42.40
2022-10-14T13:54:25.896Z,48.00
2022-10-14T13:57:12.592Z,45.30
2022-10-14T14:00:27.801Z,43.53
2022-10-14T14:02:42.845Z,43.33
2022-10-14T14:05:18.830Z,42.47
2022-10-14T14:10:42.451Z,46.85
2022-10-14T14:13:13.507Z,56.00
2022-10-14T14:15:42.409Z,51.13
2022-10-14T14:18:49.418Z,44.00
2022-10-14T14:21:26.857Z,43.85
2022-10-14T14:24:00.620Z,42.30
2022-10-14T14:26:37.592Z,45.28
2022-10-14T14:29:13.493Z,42.25
2022-10-14T14:34:31.267Z,41.22
2022-10-14T14:37:10.962Z,43.35
2022-10-14T14:40:01.251Z,42.75
2022-10-14T14:42:39.776Z,42.92
2022-10-14T14:45:21.094Z,45.40
2022-10-14T14:47:54.644Z,42.88
2022-10-14T14:50:38.964Z,41.97
2022-10-14T14:53:17.794Z,43.13
2022-10-14T14:56:10.374Z,42.38
2022-10-14T14:58:52.947Z,41.03
2022-10-14T15:01:28.681Z,39.65
2022-10-14T15:04:13.618Z,41.33
2022-10-14T15:07:00.487Z,40.92
2022-10-14T15:09:54.978Z,40.80
2022-10-14T15:12:30.947Z,40.90
2022-10-14T15:15:00.298Z,42.92
2022-10-14T15:17:31.251Z,43.33
2022-10-14T15:20:31.648Z,45.83
2022-10-14T15:22:59.501Z,42.70
2022-10-14T15:25:31.645Z,43.35
2022-10-14T15:28:03.141Z,41.22
2022-10-14T15:30:52.034Z,42.70
2022-10-14T15:33:26.524Z,40.97
2022-10-14T15:35:59.970Z,41.47
2022-10-14T15:41:04.514Z,43.15
2022-10-14T15:43:33.002Z,40.72
2022-10-14T15:46:19.422Z,45.53
2022-10-14T15:48:57.994Z,41.58
2022-10-14T15:51:30.661Z,43.33
2022-10-14T15:53:58.988Z,42.47
2022-10-14T15:56:26.714Z,42.15
2022-10-14T15:58:54.431Z,46.17
2022-10-14T16:01:23.474Z,44.60
2022-10-14T16:03:55.363Z,46.72
2022-10-14T16:06:24.676Z,44.72
2022-10-14T16:08:52.948Z,46.88
2022-10-14T16:11:27.413Z,48.67
2022-10-14T16:13:56.066Z,49.72
2022-10-14T16:16:35.308Z,50.53
2022-10-14T16:19:07.542Z,49.05
2022-10-14T16:21:36.942Z,49.13
2022-10-14T16:24:07.257Z,50.80
2022-10-14T16:26:35.373Z,50.55
2022-10-14T16:29:03.932Z,50.47
2022-10-14T16:31:31.844Z,57.78
2022-10-14T16:33:59.542Z,53.72
2022-10-14T16:36:28.105Z,54.95
2022-10-14T16:38:57.274Z,55.22
2022-10-14T16:41:27.917Z,55.85
2022-10-14T16:44:10.770Z,68.28
2022-10-14T16:47:02.161Z,55.85
2022-10-14T16:49:30.264Z,64.07
2022-10-14T16:51:59.451Z,59.85
2022-10-14T16:54:29.320Z,61.45
2022-10-14T16:56:57.908Z,57.58
2022-10-14T16:59:30.769Z,59.67
2022-10-14T17:01:58.911Z,59.42
2022-10-14T17:04:27.209Z,60.83
2022-10-14T17:07:08.358Z,61.92
2022-10-14T17:09:39.657Z,69.32
2022-10-14T17:12:13.020Z,65.68
2022-10-14T17:14:45.028Z,60.80
2022-10-14T17:17:14.042Z,62.90
2022-10-14T17:19:42.420Z,60.50
2022-10-14T17:22:10.563Z,62.38
2022-10-14T17:24:38.888Z,60.13
2022-10-14T17:27:10.998Z,77.70
2022-10-14T17:29:41.004Z,62.30
2022-10-14T17:32:09.773Z,59.83
2022-10-14T17:34:41.645Z,60.85
2022-10-14T17:39:42.320Z,62.45
2022-10-14T17:42:12.624Z,64.05
2022-10-14T17:44:44.096Z,61.58
2022-10-14T17:47:13.102Z,61.15
2022-10-14T17:49:40.845Z,62.67
2022-10-14T17:52:09.224Z,61.75
2022-10-14T17:54:37.054Z,63.08
2022-10-14T17:57:05.005Z,60.40
2022-10-14T17:59:32.761Z,64.28
2022-10-14T18:02:03.426Z,60.33
2022-10-14T18:07:01.219Z,64.43
2022-10-14T18:09:30.966Z,66.25
2022-10-14T18:12:13.998Z,67.70
2022-10-14T18:14:42.624Z,67.40
2022-10-14T18:17:12.663Z,65.20
2022-10-14T18:19:41.708Z,69.07
2022-10-14T18:22:11.388Z,67.88
2022-10-14T18:24:39.707Z,68.15
2022-10-14T18:27:07.623Z,70.05
2022-10-14T18:29:35.675Z,72.72
2022-10-14T18:32:04.321Z,74.85
2022-10-14T18:34:33.377Z,68.63
2022-10-14T18:37:04.915Z,69.05
2022-10-14T18:39:32.813Z,72.13
2022-10-14T18:42:01.154Z,71.40
2022-10-14T18:44:47.732Z,71.22
2022-10-14T18:47:16.254Z,72.90
2022-10-14T18:49:47.241Z,72.25
2022-10-14T18:52:15.356Z,70.55
2022-10-14T18:54:47.026Z,71.30
2022-10-14T18:57:15.213Z,75.55
2022-10-14T18:59:47.583Z,73.15
2022-10-14T19:02:18.646Z,70.05
2022-10-14T19:04:46.755Z,72.47
2022-10-14T19:07:17.210Z,74.97
2022-10-14T19:09:45.134Z,74.05
2022-10-14T19:12:31.376Z,79.38
2022-10-14T19:14:59.558Z,73.05
2022-10-14T19:17:30.642Z,68.65
2022-10-14T19:22:29.917Z,73.28
2022-10-14T19:25:08.708Z,74.25
2022-10-14T19:27:40.196Z,73.82
2022-10-14T19:30:09.626Z,71.85
2022-10-14T19:32:40.969Z,72.40
2022-10-14T19:35:15.322Z,73.55
2022-10-14T19:37:46.305Z,74.05
2022-10-14T19:40:14.141Z,72.45
2022-10-14T19:42:41.784Z,77.68
2022-10-14T19:45:10.384Z,75.65
2022-10-14T19:47:38.843Z,76.60
2022-10-14T19:50:07.322Z,81.78
2022-10-14T19:52:35.145Z,77.53
2022-10-14T19:55:16.708Z,77.88
2022-10-14T19:58:01.365Z,77.70
2022-10-14T20:00:31.144Z,73.13
2022-10-14T20:03:01.564Z,74.18
2022-10-14T20:05:35.340Z,75.85
2022-10-14T20:08:06.553Z,72.45
2022-10-14T20:10:44.125Z,76.35
2022-10-14T20:13:15.122Z,74.50
2022-10-14T20:15:45.130Z,77.97
2022-10-14T20:18:13.082Z,74.28
2022-10-14T20:20:41.604Z,75.13
2022-10-14T20:23:09.293Z,72.50
2022-10-14T20:25:36.910Z,74.25
2022-10-14T20:28:08.890Z,72.22
2022-10-14T20:30:41.920Z,73.88
2022-10-14T20:33:10.145Z,73.47
2022-10-14T20:35:38.623Z,72.40
2022-10-14T20:38:06.632Z,72.97
2022-10-14T20:40:36.101Z,74.43
2022-10-14T20:43:04.820Z,72.38
2022-10-14T20:45:32.661Z,69.18
2022-10-14T20:48:00.481Z,73.43
2022-10-14T20:50:28.498Z,72.63
2022-10-14T20:52:56.303Z,71.72
2022-10-14T20:55:25.750Z,73.80
2022-10-14T20:57:53.513Z,74.50
2022-10-14T21:00:21.202Z,72.85
2022-10-14T21:02:48.998Z,74.28
2022-10-14T21:05:16.771Z,72.07
2022-10-14T21:07:44.511Z,72.25
2022-10-14T21:10:12.242Z,73.53
2022-10-14T21:12:45.305Z,75.20
2022-10-14T21:15:17.960Z,73.47
2022-10-14T21:17:49.670Z,77.63
2022-10-14T21:20:17.951Z,75.50
2022-10-14T21:22:45.590Z,73.85
2022-10-14T21:26:32.664Z,73.95
2022-10-14T21:29:05.135Z,73.60
2022-10-14T21:31:33.590Z,77.03
2022-10-14T21:34:06.217Z,75.82
2022-10-14T21:36:35.408Z,74.70
2022-10-14T21:39:10.962Z,76.72
2022-10-14T21:41:39.704Z,75.72
2022-10-14T21:44:08.341Z,76.55
2022-10-14T21:46:36.479Z,74.25
2022-10-14T21:49:04.262Z,77.03
2022-10-14T21:51:32.410Z,75.22
2022-10-14T21:54:00.092Z,75.97
2022-10-14T21:56:28.755Z,77.80
2022-10-14T21:58:56.909Z,79.78
2022-10-14T22:01:27.519Z,79.60
2022-10-14T22:04:06.720Z,80.30
2022-10-14T22:06:36.026Z,77.03
2022-10-14T22:09:07.230Z,79.88
2022-10-14T22:14:06.649Z,76.97
2022-10-14T22:16:35.890Z,79.57
2022-10-14T22:19:05.444Z,78.53
2022-10-14T22:21:35.412Z,79.07
2022-10-14T22:24:03.778Z,79.55
2022-10-14T22:26:31.742Z,78.88
2022-10-14T22:29:12.258Z,79.25
2022-10-14T22:31:42.638Z,80.65
2022-10-14T22:34:14.808Z,81.32
2022-10-14T22:36:42.810Z,80.35
2022-10-14T22:39:13.297Z,82.18
2022-10-14T22:41:41.002Z,82.18
2022-10-14T22:44:10.066Z,84.35
2022-10-14T22:46:39.143Z,83.40
2022-10-14T22:49:06.886Z,82.25
2022-10-14T22:51:40.779Z,85.03
2022-10-14T22:54:10.032Z,85.85
2022-10-14T22:56:38.233Z,84.43
2022-10-14T22:59:09.400Z,86.18
2022-10-14T23:01:38.077Z,83.90
2022-10-14T23:04:05.742Z,85.30
2022-10-14T23:06:33.593Z,85.88
2022-10-14T23:09:01.628Z,87.43
2022-10-14T23:11:31.415Z,83.43
2022-10-14T23:14:01.624Z,85.90
2022-10-14T23:16:32.311Z,87.68
2022-10-14T23:18:59.979Z,84.45
2022-10-14T23:21:33.658Z,86.82
2022-10-14T23:24:03.542Z,86.65
2022-10-14T23:26:33.321Z,86.85
2022-10-14T23:29:03.139Z,85.47
2022-10-14T23:31:32.591Z,85.93
2022-10-14T23:34:03.007Z,85.53
2022-10-14T23:36:30.802Z,87.87
2022-10-14T23:38:59.182Z,85.20
2022-10-14T23:41:26.928Z,87.53
2022-10-14T23:43:56.386Z,88.68
2022-10-14T23:46:24.566Z,88.78
2022-10-14T23:49:06.628Z,85.22
2022-10-14T23:51:35.858Z,87.97
2022-10-14T23:54:04.466Z,89.15
2022-10-14T23:56:32.356Z,88.00
2022-10-14T23:58:59.997Z,89.68
